Time;durP1;ratioP1;P1;durP2;ratioP2;P2;SDS_P1;SDS_P2;PMS_P1;PMS_P2;Temp;Humidity;BMP_temperature;BMP_pressure;BME280_temperature;BME280_humidity;BME280_pressure;Samples;Min_cycle;Max_cycle;Signal;HPM_P1;HPM_P2
2022/07/16 00:01:45;;;;;;;7.47;2.80;;;17.50;84.10;;;;;;5001323;28;20056;-74
2022/07/16 00:04:10;;;;;;;8.83;3.63;;;17.40;84.90;;;;;;5002073;28;20174;-74
2022/07/16 00:06:36;;;;;;;7.43;3.37;;;17.40;85.40;;;;;;5000848;28;20348;-74
2022/07/16 00:09:02;;;;;;;6.07;3.23;;;17.30;85.90;;;;;;5000926;28;20026;-73
2022/07/16 00:11:28;;;;;;;5.37;3.33;;;17.30;86.20;;;;;;5000997;28;20033;-74
2022/07/16 00:13:53;;;;;;;4.00;3.60;;;17.30;85.80;;;;;;5001648;28;20033;-74
2022/07/16 00:16:19;;;;;;;6.10;3.50;;;17.20;86.30;;;;;;5001926;28;20022;-74
2022/07/16 00:21:29;;;;;;;4.88;2.92;;;17.20;87.40;;;;;;5000077;28;20048;-73
2022/07/16 00:23:55;;;;;;;4.97;2.90;;;17.10;86.90;;;;;;5000536;28;20097;-73
2022/07/16 00:26:21;;;;;;;7.67;3.30;;;17.10;87.00;;;;;;4984480;28;20026;-73
2022/07/16 00:28:46;;;;;;;4.53;2.67;;;17.00;86.80;;;;;;5000584;28;20085;-73
2022/07/16 00:31:12;;;;;;;5.77;3.57;;;16.90;86.90;;;;;;5000629;28;20336;-73
2022/07/16 00:33:38;;;;;;;5.17;3.07;;;16.90;87.80;;;;;;5001655;28;20351;-74
2022/07/16 00:36:04;;;;;;;5.20;2.87;;;16.80;87.20;;;;;;5000216;28;20030;-74
2022/07/16 00:38:30;;;;;;;4.13;3.08;;;16.80;87.00;;;;;;4968128;28;20037;-73
2022/07/16 00:40:56;;;;;;;5.27;3.00;;;16.80;86.40;;;;;;5001541;28;20089;-74
2022/07/16 00:43:22;;;;;;;5.37;2.83;;;16.70;86.80;;;;;;5000119;28;20026;-74
2022/07/16 00:45:48;;;;;;;5.07;3.10;;;16.70;87.00;;;;;;5000346;28;20033;-74
2022/07/16 00:48:13;;;;;;;8.13;2.90;;;16.60;86.70;;;;;;4983984;28;20061;-74
2022/07/16 00:50:39;;;;;;;6.57;3.40;;;16.60;87.50;;;;;;5000117;28;20358;-74
2022/07/16 00:53:07;;;;;;;8.37;3.10;;;16.60;87.10;;;;;;5000141;28;20085;-73
2022/07/16 00:55:33;;;;;;;4.03;2.83;;;16.60;87.60;;;;;;4984253;28;20097;-73
2022/07/16 00:57:59;;;;;;;7.20;3.00;;;16.50;87.20;;;;;;5001478;28;20034;-73
2022/07/16 01:00:25;;;;;;;3.90;2.80;;;16.50;86.80;;;;;;5000502;28;20293;-73
2022/07/16 01:02:51;;;;;;;5.18;3.33;;;16.50;86.90;;;;;;4983961;28;20309;-73
2022/07/16 01:05:17;;;;;;;4.43;2.27;;;16.40;86.90;;;;;;4968106;28;20045;-73
2022/07/16 01:07:43;;;;;;;4.55;2.50;;;16.40;88.60;;;;;;5001265;28;20033;-73
2022/07/16 01:10:09;;;;;;;4.20;2.88;;;16.40;88.50;;;;;;5001536;28;20407;-73
2022/07/16 01:12:35;;;;;;;7.50;3.23;;;16.40;88.10;;;;;;5000291;28;20052;-74
2022/07/16 01:15:01;;;;;;;4.27;3.03;;;16.40;89.70;;;;;;4968478;28;20026;-73
2022/07/16 01:17:27;;;;;;;8.23;3.83;;;16.30;89.50;;;;;;4985040;28;20269;-74
2022/07/16 01:19:53;;;;;;;6.00;2.87;;;16.30;89.70;;;;;;4984898;28;20026;-74
2022/07/16 01:22:19;;;;;;;4.77;3.37;;;16.30;89.60;;;;;;4999429;28;20256;-73
2022/07/16 01:24:46;;;;;;;6.07;3.03;;;16.20;89.60;;;;;;4983914;28;20329;-73
2022/07/16 01:27:12;;;;;;;7.97;3.67;;;16.20;90.00;;;;;;4999937;28;20022;-73
2022/07/16 01:29:38;;;;;;;5.53;3.08;;;16.20;90.20;;;;;;5001329;28;20338;-73
2022/07/16 01:32:04;;;;;;;7.10;3.33;;;16.10;90.10;;;;;;4983874;28;20033;-73
2022/07/16 01:34:30;;;;;;;4.07;3.05;;;16.10;90.40;;;;;;4999782;28;20026;-73
2022/07/16 01:37:02;;;;;;;5.30;3.33;;;16.10;90.40;;;;;;4983602;28;20030;-73
2022/07/16 01:39:29;;;;;;;6.32;3.17;;;16.00;90.30;;;;;;4968290;28;20190;-73
2022/07/16 01:41:57;;;;;;;5.20;3.28;;;16.00;90.30;;;;;;5000125;28;20097;-73
2022/07/16 01:44:24;;;;;;;5.22;3.20;;;16.00;90.10;;;;;;4983893;28;20159;-73
2022/07/16 01:46:54;;;;;;;6.78;3.22;;;16.00;90.00;;;;;;4999893;28;20091;-72
2022/07/16 01:49:20;;;;;;;5.28;3.05;;;16.00;90.10;;;;;;4999926;28;20319;-73
2022/07/16 01:51:46;;;;;;;5.43;3.23;;;16.00;90.10;;;;;;5000557;28;20061;-74
2022/07/16 01:54:11;;;;;;;3.93;2.80;;;16.00;90.20;;;;;;5003057;28;20034;-73
2022/07/16 01:56:37;;;;;;;5.63;3.37;;;15.90;90.50;;;;;;4986536;28;20034;-74
2022/07/16 01:59:03;;;;;;;7.37;3.37;;;15.90;99.90;;;;;;5004476;28;20109;-73
2022/07/16 02:01:29;;;;;;;6.37;3.07;;;15.80;94.40;;;;;;5003300;28;20027;-73
2022/07/16 02:03:54;;;;;;;4.27;2.90;;;15.80;93.20;;;;;;5003011;28;20107;-73
2022/07/16 02:06:20;;;;;;;6.43;3.40;;;15.70;93.20;;;;;;4986605;28;20257;-73
2022/07/16 02:08:46;;;;;;;5.67;3.23;;;15.70;93.00;;;;;;5002831;28;20022;-74
2022/07/16 02:11:12;;;;;;;5.90;3.30;;;15.70;93.30;;;;;;5004260;28;20026;-73
2022/07/16 02:13:38;;;;;;;5.63;3.80;;;15.70;93.80;;;;;;5002059;28;20018;-73
2022/07/16 02:16:04;;;;;;;7.97;4.13;;;15.70;93.80;;;;;;5002932;28;20113;-73
2022/07/16 02:18:30;;;;;;;5.63;3.78;;;15.60;94.10;;;;;;5002973;28;20233;-73
2022/07/16 02:20:56;;;;;;;5.03;3.93;;;15.60;94.20;;;;;;5003341;28;20030;-73
2022/07/16 02:23:22;;;;;;;8.33;3.10;;;15.60;94.00;;;;;;4986502;28;20022;-73
2022/07/16 02:25:47;;;;;;;6.45;3.50;;;15.50;94.00;;;;;;5004093;28;20026;-73
2022/07/16 02:28:13;;;;;;;6.33;3.93;;;15.40;94.60;;;;;;4986572;28;20022;-73
2022/07/16 02:30:45;;;;;;;5.07;3.50;;;15.40;94.40;;;;;;5004126;28;20050;-73
2022/07/16 02:33:14;;;;;;;5.55;4.07;;;15.40;94.30;;;;;;5002550;28;20118;-73
2022/07/16 02:35:40;;;;;;;5.68;3.15;;;15.30;94.60;;;;;;4986465;28;20030;-73
2022/07/16 02:38:06;;;;;;;6.53;4.00;;;15.20;94.60;;;;;;5002635;28;20037;-73
2022/07/16 02:40:35;;;;;;;6.97;3.65;;;15.20;94.70;;;;;;4986624;28;20050;-73
2022/07/16 02:43:02;;;;;;;7.03;3.50;;;15.10;94.80;;;;;;5002367;28;20217;-73
2022/07/16 02:45:28;;;;;;;6.20;3.50;;;15.10;94.90;;;;;;5002548;28;20105;-73
2022/07/16 02:47:54;;;;;;;6.60;3.57;;;15.10;95.00;;;;;;5002307;28;20556;-73
2022/07/16 02:50:20;;;;;;;5.23;3.67;;;15.00;95.00;;;;;;5002549;28;20054;-73
2022/07/16 02:52:45;;;;;;;7.93;3.87;;;15.00;95.30;;;;;;5003161;28;20022;-73
2022/07/16 02:55:11;;;;;;;7.30;3.67;;;15.00;95.80;;;;;;5002473;28;20405;-73
2022/07/16 02:57:37;;;;;;;10.83;4.27;;;14.90;95.50;;;;;;5003494;28;20085;-73
2022/07/16 03:00:08;;;;;;;6.50;4.15;;;14.90;95.70;;;;;;4986195;28;20395;-73
2022/07/16 03:02:34;;;;;;;6.50;3.30;;;14.90;96.20;;;;;;4985626;28;20089;-73
2022/07/16 03:05:00;;;;;;;6.30;4.03;;;14.80;96.50;;;;;;5001502;28;20021;-73
2022/07/16 03:07:26;;;;;;;4.80;3.50;;;14.80;96.40;;;;;;4969604;28;20125;-73
2022/07/16 03:09:52;;;;;;;8.00;3.87;;;14.80;96.50;;;;;;5002137;28;20098;-73
2022/07/16 03:12:18;;;;;;;6.53;3.90;;;14.70;96.60;;;;;;5003352;28;20026;-73
2022/07/16 03:14:45;;;;;;;6.43;3.65;;;14.70;96.80;;;;;;5001917;28;20359;-73
2022/07/16 03:17:11;;;;;;;8.00;4.75;;;14.60;97.20;;;;;;4969805;28;20224;-73
2022/07/16 03:19:37;;;;;;;7.28;3.63;;;14.60;97.70;;;;;;5002060;28;20026;-73
2022/07/16 03:22:02;;;;;;;5.67;3.43;;;14.60;97.60;;;;;;5002313;28;20045;-73
2022/07/16 03:24:28;;;;;;;8.57;3.57;;;14.60;97.60;;;;;;4985323;28;20033;-73
2022/07/16 03:26:55;;;;;;;7.97;4.10;;;14.50;97.50;;;;;;5001648;28;20202;-73
2022/07/16 03:29:21;;;;;;;8.95;4.38;;;14.50;97.60;;;;;;5001657;28;20090;-73
2022/07/16 03:31:46;;;;;;;5.78;3.95;;;14.40;97.70;;;;;;5002892;28;20026;-72
2022/07/16 03:34:12;;;;;;;4.87;3.40;;;14.40;97.90;;;;;;5001411;28;20094;-73
2022/07/16 03:36:38;;;;;;;5.03;3.70;;;14.30;98.40;;;;;;4985318;28;20061;-73
2022/07/16 03:39:06;;;;;;;5.40;3.65;;;14.30;99.40;;;;;;5002737;28;20057;-73
2022/07/16 03:41:34;;;;;;;6.38;3.83;;;14.30;99.20;;;;;;4985742;28;20037;-73
2022/07/16 03:44:04;;;;;;;7.05;4.45;;;14.30;99.80;;;;;;5001325;28;20032;-73
2022/07/16 03:46:31;;;;;;;7.20;5.05;;;14.20;99.90;;;;;;4985373;28;20316;-73
2022/07/16 03:48:57;;;;;;;6.75;4.22;;;14.20;99.90;;;;;;5001440;28;20229;-73
2022/07/16 03:51:23;;;;;;;8.65;4.78;;;14.20;99.90;;;;;;4969128;28;20030;-73
2022/07/16 03:53:49;;;;;;;6.73;4.37;;;14.10;99.90;;;;;;5001158;28;20396;-73
2022/07/16 03:56:15;;;;;;;8.37;4.43;;;14.20;99.90;;;;;;5002530;28;20404;-73
2022/07/16 03:58:40;;;;;;;7.63;4.83;;;14.10;99.90;;;;;;4969144;28;20080;-73
2022/07/16 04:01:06;;;;;;;7.57;4.17;;;14.00;99.90;;;;;;5002490;28;20034;-72
2022/07/16 04:03:33;;;;;;;8.35;4.15;;;14.00;99.90;;;;;;5000908;28;20340;-72
2022/07/16 04:05:58;;;;;;;6.10;3.75;;;14.00;99.90;;;;;;4985294;28;20289;-73
2022/07/16 04:08:24;;;;;;;6.18;4.13;;;14.00;99.90;;;;;;5001042;28;20042;-73
2022/07/16 04:10:50;;;;;;;7.87;4.10;;;13.90;99.90;;;;;;4984924;28;20029;-72
2022/07/16 04:13:16;;;;;;;7.33;3.97;;;13.90;99.90;;;;;;5001849;28;20019;-73
2022/07/16 04:15:42;;;;;;;6.50;4.53;;;13.90;99.90;;;;;;5000600;28;20032;-73
2022/07/16 04:18:07;;;;;;;7.33;4.33;;;13.90;99.90;;;;;;4984743;28;20033;-73
2022/07/16 04:20:33;;;;;;;8.68;3.85;;;13.80;99.90;;;;;;5000323;28;20343;-73
2022/07/16 04:22:59;;;;;;;7.60;4.40;;;13.80;99.90;;;;;;5001349;28;20018;-73
2022/07/16 04:25:25;;;;;;;9.80;4.83;;;13.70;99.90;;;;;;5001955;28;20026;-73
2022/07/16 04:27:50;;;;;;;6.32;4.35;;;13.80;99.90;;;;;;5001677;28;20033;-73
2022/07/16 04:30:16;;;;;;;7.03;4.43;;;13.70;99.90;;;;;;5001846;28;20030;-73
2022/07/16 04:32:42;;;;;;;7.77;5.77;;;13.70;99.90;;;;;;4982238;28;20018;-73
2022/07/16 04:35:10;;;;;;;7.03;4.40;;;13.80;99.90;;;;;;5001341;28;20026;-74
2022/07/16 04:37:35;;;;;;;8.85;5.03;;;13.80;99.90;;;;;;5000301;28;20313;-73
2022/07/16 04:40:03;;;;;;;6.97;4.83;;;13.70;99.90;;;;;;4996989;28;20045;-74
2022/07/16 04:42:29;;;;;;;9.88;5.15;;;13.80;99.90;;;;;;4984278;28;20318;-74
2022/07/16 04:44:55;;;;;;;7.60;4.40;;;13.80;99.90;;;;;;4996433;28;20097;-73
2022/07/16 04:47:20;;;;;;;9.80;4.63;;;13.90;99.90;;;;;;4997135;28;20023;-73
2022/07/16 04:49:46;;;;;;;8.40;5.33;;;14.00;99.90;;;;;;4996347;28;20022;-73
2022/07/16 04:52:12;;;;;;;12.90;6.47;;;14.00;99.90;;;;;;5006203;28;20257;-74
2022/07/16 04:54:38;;;;;;;6.32;4.97;;;14.00;99.90;;;;;;5002355;28;20296;-68
2022/07/16 04:57:03;;;;;;;8.13;4.80;;;14.20;99.90;;;;;;5002597;28;20049;-68
2022/07/16 04:59:29;;;;;;;8.70;4.00;;;14.20;99.90;;;;;;4998843;28;20356;-68
2022/07/16 05:04:39;;;;;;;6.95;4.03;;;14.40;99.90;;;;;;4996581;28;20054;-68
2022/07/16 05:07:04;;;;;;;7.27;4.70;;;14.50;99.90;;;;;;5002165;28;20034;-68
2022/07/16 05:09:30;;;;;;;8.10;4.43;;;14.50;99.90;;;;;;5009371;28;20026;-68
2022/07/16 05:11:56;;;;;;;9.17;4.80;;;14.50;99.90;;;;;;5002583;28;20076;-68
2022/07/16 05:14:22;;;;;;;5.93;4.03;;;14.60;99.90;;;;;;5001121;28;20022;-68
2022/07/16 05:16:48;;;;;;;6.20;3.93;;;14.60;99.90;;;;;;5002524;28;20037;-68
2022/07/16 05:19:13;;;;;;;11.10;4.80;;;14.60;99.90;;;;;;5002393;28;20030;-68
2022/07/16 05:21:39;;;;;;;8.52;4.20;;;14.60;99.90;;;;;;5002142;28;20383;-67
2022/07/16 05:24:05;;;;;;;7.40;4.03;;;14.70;99.90;;;;;;5002145;28;20034;-68
2022/07/16 05:26:31;;;;;;;5.63;3.67;;;14.80;99.90;;;;;;5002854;28;20030;-68
2022/07/16 05:28:56;;;;;;;4.97;3.50;;;14.80;99.90;;;;;;5006214;28;20085;-68
2022/07/16 05:31:22;;;;;;;5.43;3.97;;;14.80;99.90;;;;;;5006225;28;20317;-68
2022/07/16 05:33:48;;;;;;;5.70;3.50;;;14.90;99.90;;;;;;5005923;28;20029;-67
2022/07/16 05:36:14;;;;;;;5.20;4.00;;;14.90;99.90;;;;;;5005842;28;20030;-68
2022/07/16 05:38:39;;;;;;;9.38;4.03;;;15.00;99.90;;;;;;5005842;28;20045;-66
2022/07/16 05:41:06;;;;;;;9.50;3.80;;;15.00;99.80;;;;;;5005868;28;20058;-68
2022/07/16 05:43:32;;;;;;;7.27;4.00;;;15.00;97.70;;;;;;5005690;28;20077;-68
2022/07/16 05:45:58;;;;;;;7.33;4.23;;;15.00;97.80;;;;;;5005718;28;20026;-66
2022/07/16 05:48:23;;;;;;;5.13;3.10;;;15.00;98.90;;;;;;5005689;28;20026;-68
2022/07/16 05:50:49;;;;;;;8.85;4.35;;;15.10;98.80;;;;;;5005788;28;20034;-68
2022/07/16 05:53:15;;;;;;;5.27;3.67;;;15.10;97.30;;;;;;5005179;28;20026;-67
2022/07/16 05:55:41;;;;;;;6.87;3.67;;;15.10;97.40;;;;;;5005673;28;20055;-68
2022/07/16 05:58:06;;;;;;;6.03;3.53;;;15.10;97.10;;;;;;5005631;28;20214;-67
2022/07/16 06:00:32;;;;;;;7.13;3.63;;;15.20;98.00;;;;;;5005819;28;20352;-67
2022/07/16 06:02:58;;;;;;;5.18;3.42;;;15.20;98.40;;;;;;5005434;28;20210;-68
2022/07/16 06:05:23;;;;;;;7.87;3.73;;;15.30;98.70;;;;;;5005614;28;20034;-68
2022/07/16 06:07:49;;;;;;;12.57;5.43;;;15.30;98.50;;;;;;5005089;28;20237;-67
2022/07/16 06:10:15;;;;;;;8.23;4.17;;;15.40;98.20;;;;;;5005535;28;20225;-67
2022/07/16 06:12:41;;;;;;;5.03;3.10;;;15.50;97.80;;;;;;5005336;28;20030;-67
2022/07/16 06:15:10;;;;;;;5.23;3.47;;;15.60;97.20;;;;;;5005393;28;20030;-68
2022/07/16 06:17:36;;;;;;;8.25;3.80;;;15.60;96.90;;;;;;5002096;28;20092;-68
2022/07/16 06:20:01;;;;;;;7.30;3.50;;;15.60;95.50;;;;;;5001216;28;20022;-67
2022/07/16 06:22:27;;;;;;;6.53;3.13;;;15.60;95.40;;;;;;5004027;28;20072;-67
2022/07/16 06:24:53;;;;;;;7.17;3.20;;;15.70;96.60;;;;;;4999445;28;20033;-68
2022/07/16 06:27:18;;;;;;;7.20;2.90;;;15.80;96.50;;;;;;5001727;28;20368;-67
2022/07/16 06:29:44;;;;;;;4.73;3.30;;;15.90;96.70;;;;;;5005023;28;20030;-68
2022/07/16 06:32:10;;;;;;;4.93;3.30;;;16.00;95.40;;;;;;5005173;28;20026;-74
2022/07/16 06:34:36;;;;;;;4.83;3.10;;;16.00;94.90;;;;;;4987562;28;20105;-74
2022/07/16 06:37:01;;;;;;;7.53;3.50;;;16.10;95.60;;;;;;5003429;28;20033;-74
2022/07/16 06:39:27;;;;;;;4.50;3.00;;;16.20;97.00;;;;;;4971336;28;20244;-74
2022/07/16 06:41:53;;;;;;;3.73;2.70;;;16.20;95.00;;;;;;5003837;28;20026;-74
2022/07/16 06:44:19;;;;;;;7.17;2.77;;;16.30;94.20;;;;;;4993967;28;20027;-73
2022/07/16 06:46:44;;;;;;;7.67;3.70;;;16.30;94.20;;;;;;4978297;28;20030;-74
2022/07/16 06:49:10;;;;;;;5.57;2.97;;;16.40;93.40;;;;;;5000074;28;20019;-74
2022/07/16 06:51:36;;;;;;;5.53;3.27;;;16.40;93.40;;;;;;4975493;28;20021;-74
2022/07/16 06:54:02;;;;;;;5.47;2.70;;;16.50;93.70;;;;;;5014051;28;20058;-74
2022/07/16 06:56:28;;;;;;;3.93;2.33;;;16.60;94.30;;;;;;4995661;28;20049;-74
2022/07/16 06:58:53;;;;;;;3.80;2.43;;;16.70;94.20;;;;;;4993066;28;20049;-74
2022/07/16 07:01:19;;;;;;;4.50;2.70;;;16.70;94.30;;;;;;4986935;28;20345;-73
2022/07/16 07:03:45;;;;;;;4.83;2.73;;;16.80;94.60;;;;;;4987395;28;20046;-74
2022/07/16 07:06:11;;;;;;;3.30;2.37;;;16.80;93.90;;;;;;4997396;28;20026;-74
2022/07/16 07:08:36;;;;;;;3.80;2.40;;;16.90;93.60;;;;;;5004606;28;20160;-74
2022/07/16 07:11:02;;;;;;;4.60;2.27;;;17.00;93.40;;;;;;5013856;28;20061;-74
2022/07/16 07:13:30;;;;;;;3.73;2.07;;;17.10;93.80;;;;;;5002942;28;20018;-74
2022/07/16 07:15:57;;;;;;;4.28;2.17;;;17.10;93.20;;;;;;5002989;28;20042;-73
2022/07/16 07:18:23;;;;;;;4.72;2.50;;;17.20;93.20;;;;;;5002995;28;20085;-74
2022/07/16 07:20:49;;;;;;;6.97;3.20;;;17.30;93.40;;;;;;4997152;28;20467;-74
2022/07/16 07:23:15;;;;;;;4.20;2.53;;;17.30;91.10;;;;;;5000393;28;20045;-73
2022/07/16 07:25:40;;;;;;;5.17;2.40;;;17.40;91.70;;;;;;4998529;28;20042;-74
2022/07/16 07:28:06;;;;;;;6.80;2.53;;;17.50;91.30;;;;;;5000514;28;20121;-74
2022/07/16 07:30:32;;;;;;;3.73;2.60;;;17.60;92.00;;;;;;4993587;28;20034;-73
2022/07/16 07:33:00;;;;;;;8.57;2.47;;;17.70;92.90;;;;;;4993000;28;20030;-74
2022/07/16 07:35:26;;;;;;;4.38;2.00;;;17.70;93.50;;;;;;4971706;28;20217;-74
2022/07/16 07:37:52;;;;;;;3.80;1.88;;;17.80;93.70;;;;;;4996856;28;20073;-74
2022/07/16 07:40:18;;;;;;;3.60;1.63;;;17.90;93.70;;;;;;4996292;28;20026;-74
2022/07/16 07:42:44;;;;;;;5.72;1.67;;;17.90;93.10;;;;;;4994065;28;20324;-74
2022/07/16 07:45:10;;;;;;;4.90;2.23;;;18.00;92.50;;;;;;5003389;28;20046;-74
2022/07/16 07:47:37;;;;;;;2.45;1.33;;;18.10;92.40;;;;;;4987991;28;20094;-73
2022/07/16 07:50:06;;;;;;;5.63;2.35;;;18.10;89.80;;;;;;4996498;28;20023;-73
2022/07/16 07:52:32;;;;;;;1.63;1.50;;;18.20;89.80;;;;;;4995864;28;20038;-73
2022/07/16 07:54:58;;;;;;;5.40;1.83;;;18.30;90.20;;;;;;5002945;28;20219;-73
2022/07/16 07:57:24;;;;;;;3.85;1.67;;;18.40;90.20;;;;;;5002190;28;20570;-73
2022/07/16 07:59:50;;;;;;;4.83;1.70;;;18.40;89.80;;;;;;4989337;28;20046;-73
2022/07/16 08:02:16;;;;;;;3.27;1.30;;;18.40;88.40;;;;;;4992355;28;20022;-73
2022/07/16 08:04:41;;;;;;;3.07;1.30;;;18.60;83.80;;;;;;4994249;28;20038;-73
2022/07/16 08:07:07;;;;;;;5.50;1.30;;;18.70;83.70;;;;;;4999325;28;20616;-73
2022/07/16 08:09:33;;;;;;;5.73;1.60;;;18.80;85.20;;;;;;4993403;28;20026;-72
2022/07/16 08:11:59;;;;;;;2.73;2.00;;;18.90;84.50;;;;;;5000712;28;20040;-72
2022/07/16 08:14:25;;;;;;;5.80;3.67;;;19.00;86.10;;;;;;4999159;28;20241;-72
2022/07/16 08:16:50;;;;;;;7.90;2.00;;;19.10;85.50;;;;;;5002917;28;20034;-73
2022/07/16 08:19:16;;;;;;;3.80;1.90;;;19.20;85.00;;;;;;5001745;28;20261;-73
2022/07/16 08:21:42;;;;;;;5.63;1.67;;;19.30;85.20;;;;;;5001546;28;20022;-73
2022/07/16 08:26:52;;;;;;;1.85;1.40;;;19.40;83.60;;;;;;5001997;28;20030;-73
2022/07/16 08:29:17;;;;;;;1.83;1.13;;;19.50;83.90;;;;;;5001542;28;20018;-72
2022/07/16 08:31:43;;;;;;;4.03;1.70;;;19.60;84.90;;;;;;4985638;28;20014;-73
2022/07/16 08:34:09;;;;;;;5.70;1.90;;;19.70;84.30;;;;;;5002535;28;20072;-73
2022/07/16 08:36:36;;;;;;;2.10;1.17;;;19.70;84.30;;;;;;5002777;28;20038;-73
2022/07/16 08:39:02;;;;;;;2.80;1.65;;;19.70;84.30;;;;;;5001626;28;20026;-73
2022/07/16 08:41:27;;;;;;;3.47;1.50;;;19.80;83.20;;;;;;5001627;28;20022;-72
2022/07/16 08:43:53;;;;;;;6.87;2.13;;;19.80;81.90;;;;;;5001413;28;20053;-73
2022/07/16 08:46:20;;;;;;;3.43;1.20;;;19.90;81.10;;;;;;5001225;28;20041;-72
2022/07/16 08:48:51;;;;;;;2.25;1.30;;;19.90;80.80;;;;;;4985457;28;20030;-73
2022/07/16 08:51:21;;;;;;;3.67;1.20;;;19.90;81.00;;;;;;4985843;28;20082;-72
2022/07/16 08:53:47;;;;;;;5.68;1.75;;;20.00;80.90;;;;;;4969804;28;20026;-72
2022/07/16 08:56:13;;;;;;;5.13;1.33;;;20.10;79.30;;;;;;5000445;28;20022;-71
2022/07/16 08:58:38;;;;;;;5.80;1.70;;;20.10;80.50;;;;;;4977855;28;20026;-73
2022/07/16 09:01:04;;;;;;;5.80;1.80;;;20.20;82.50;;;;;;4992904;28;20026;-74
2022/07/16 09:03:30;;;;;;;3.23;1.30;;;20.20;82.00;;;;;;5000516;28;20034;-74
2022/07/16 09:05:56;;;;;;;4.63;1.50;;;20.20;83.60;;;;;;5006210;28;20022;-75
2022/07/16 09:08:24;;;;;;;8.77;2.60;;;20.30;82.30;;;;;;4988677;28;20121;-74
2022/07/16 09:10:50;;;;;;;4.00;1.67;;;20.40;85.60;;;;;;5014657;28;20018;-74
2022/07/16 09:13:16;;;;;;;10.03;2.17;;;20.50;73.00;;;;;;4988863;28;20033;-74
2022/07/16 09:15:43;;;;;;;11.03;2.00;;;20.60;78.20;;;;;;5021446;28;20106;-74
2022/07/16 09:18:23;;;;;;;2.67;1.60;;;20.70;77.70;;;;;;5005699;28;20030;-74
2022/07/16 09:20:58;;;;;;;26.98;4.10;;;20.90;78.10;;;;;;4997827;28;20034;-73
2022/07/16 09:23:35;;;;;;;3.83;1.60;;;21.00;69.60;;;;;;5003616;28;20361;-74
2022/07/16 09:26:09;;;;;;;4.82;1.55;;;21.10;70.10;;;;;;4989650;28;20069;-74
2022/07/16 09:28:45;;;;;;;11.00;2.00;;;21.10;67.70;;;;;;4972675;28;20120;-74
2022/07/16 09:31:38;;;;;;;2.83;1.55;;;21.20;68.60;;;;;;5004978;28;20025;-72
2022/07/16 09:34:09;;;;;;;4.97;1.48;;;21.20;66.50;;;;;;5001715;28;20023;-73
2022/07/16 09:36:35;;;;;;;4.22;1.58;;;21.20;65.70;;;;;;5001822;28;20030;-72
2022/07/16 09:39:01;;;;;;;2.63;1.60;;;21.10;64.50;;;;;;5005312;28;20093;-73
2022/07/16 09:41:27;;;;;;;4.53;1.30;;;21.10;64.60;;;;;;5003377;28;20037;-73
2022/07/16 09:43:53;;;;;;;2.17;1.17;;;21.10;65.10;;;;;;4998282;28;20076;-73
2022/07/16 09:46:21;;;;;;;2.87;1.10;;;21.00;65.50;;;;;;4991096;28;20030;-73
2022/07/16 09:48:47;;;;;;;5.57;1.67;;;21.00;65.10;;;;;;4990000;28;20083;-73
2022/07/16 09:51:17;;;;;;;4.40;1.37;;;21.10;66.60;;;;;;4987722;28;20031;-72
2022/07/16 09:53:43;;;;;;;3.80;1.08;;;21.00;64.00;;;;;;4990458;28;20081;-72
2022/07/16 09:56:16;;;;;;;3.20;1.67;;;21.10;62.90;;;;;;4992193;28;20044;-72
2022/07/16 09:58:47;;;;;;;6.60;1.20;;;21.10;63.50;;;;;;4992765;28;20245;-73
2022/07/16 10:01:12;;;;;;;3.55;1.23;;;21.20;62.50;;;;;;4990899;28;20065;-73
2022/07/16 10:03:38;;;;;;;2.40;1.27;;;21.20;62.20;;;;;;4996850;28;20100;-73
2022/07/16 10:06:04;;;;;;;3.97;1.10;;;21.20;62.80;;;;;;4992122;28;20026;-72
2022/07/16 10:08:31;;;;;;;4.33;2.40;;;21.20;63.40;;;;;;4975264;28;20308;-73
2022/07/16 10:10:57;;;;;;;3.33;1.27;;;21.30;63.60;;;;;;4990742;28;20019;-73
2022/07/16 10:13:26;;;;;;;3.43;1.50;;;21.30;62.90;;;;;;4993443;28;20082;-73
2022/07/16 10:15:52;;;;;;;4.20;1.30;;;21.40;63.70;;;;;;5000422;28;20298;-72
2022/07/16 10:18:33;;;;;;;3.25;1.30;;;21.40;63.10;;;;;;5004465;28;20037;-72
2022/07/16 10:21:14;;;;;;;3.45;1.35;;;21.60;62.80;;;;;;5013573;28;20202;-73
2022/07/16 10:23:45;;;;;;;3.45;1.60;;;21.60;62.50;;;;;;5004336;28;20030;-72
2022/07/16 10:26:22;;;;;;;3.15;1.10;;;21.60;62.80;;;;;;5003361;28;20027;-73
2022/07/16 10:28:56;;;;;;;3.97;1.30;;;21.70;63.40;;;;;;4987421;28;20347;-72
2022/07/16 10:32:45;;;;;;;3.30;1.17;;;21.80;63.40;;;;;;4971988;28;20011;-73
2022/07/16 10:34:39;;;;;;;2.72;1.35;;;21.90;62.20;;;;;;4992935;28;20264;-73
2022/07/16 10:37:26;;;;;;;3.25;1.08;;;21.90;63.00;;;;;;4984382;28;20025;-73
2022/07/16 10:40:02;;;;;;;2.80;1.50;;;21.90;63.00;;;;;;4980221;28;20025;-74
2022/07/16 10:42:28;;;;;;;2.95;1.20;;;21.90;61.90;;;;;;5001122;28;20069;-73
2022/07/16 10:44:54;;;;;;;2.35;1.35;;;21.80;62.80;;;;;;4988296;28;20221;-73
2022/07/16 10:47:19;;;;;;;2.00;1.20;;;21.80;62.40;;;;;;4977656;28;20037;-73
2022/07/16 10:49:45;;;;;;;2.90;1.40;;;21.90;62.90;;;;;;4998357;28;20325;-73
2022/07/16 10:52:15;;;;;;;4.35;1.60;;;22.00;63.30;;;;;;4981714;28;20022;-73
2022/07/16 10:55:00;;;;;;;3.22;1.58;;;22.00;62.10;;;;;;4984985;28;20014;-73
2022/07/16 10:57:34;;;;;;;3.20;1.30;;;22.10;62.20;;;;;;4967972;28;20260;-73
2022/07/16 11:00:00;;;;;;;2.65;1.40;;;22.20;63.80;;;;;;4949789;28;20265;-73
2022/07/16 11:02:25;;;;;;;2.00;1.13;;;22.40;63.30;;;;;;4983502;28;20026;-73
2022/07/16 11:04:52;;;;;;;4.07;1.47;;;22.60;64.50;;;;;;5002969;28;20364;-73
2022/07/16 11:07:19;;;;;;;4.85;1.65;;;22.70;61.30;;;;;;4980355;28;20337;-73
2022/07/16 11:09:48;;;;;;;5.38;1.70;;;22.80;60.40;;;;;;5010006;28;20325;-73
2022/07/16 11:12:26;;;;;;;3.60;1.60;;;22.80;60.00;;;;;;4986966;28;20030;-73
2022/07/16 11:14:57;;;;;;;2.45;1.25;;;22.70;60.90;;;;;;4994299;28;20228;-75
2022/07/16 11:17:29;;;;;;;6.95;1.30;;;22.70;61.40;;;;;;4982400;28;20026;-77
2022/07/16 11:20:05;;;;;;;3.47;2.03;;;22.80;62.60;;;;;;4985899;28;20029;-78
2022/07/16 11:22:31;;;;;;;3.17;1.70;;;22.90;63.20;;;;;;4994695;28;20037;-78
2022/07/16 11:25:03;;;;;;;2.97;1.20;;;23.00;62.40;;;;;;4984762;28;20029;-78
2022/07/16 11:27:39;;;;;;;6.70;1.45;;;23.10;62.80;;;;;;4950747;28;20046;-78
2022/07/16 11:30:23;;;;;;;3.83;1.23;;;23.20;62.00;;;;;;4999492;28;20018;-78
2022/07/16 11:33:02;;;;;;;6.38;1.73;;;23.20;61.80;;;;;;4992924;28;20030;-78
2022/07/16 11:35:40;;;;;;;2.50;1.30;;;23.20;60.50;;;;;;4955651;28;20026;-78
2022/07/16 11:38:26;;;;;;;3.38;1.08;;;23.20;62.10;;;;;;5017461;28;20084;-78
2022/07/16 11:40:55;;;;;;;1.70;1.30;;;23.30;60.60;;;;;;4986488;28;20034;-78
2022/07/16 11:43:28;;;;;;;2.35;1.20;;;23.40;61.40;;;;;;4986022;28;20029;-79
2022/07/16 11:45:56;;;;;;;3.42;1.40;;;23.50;61.00;;;;;;5002749;28;20108;-78
2022/07/16 11:48:36;;;;;;;2.38;1.48;;;23.50;61.40;;;;;;5000926;28;20037;-78
2022/07/16 11:51:08;;;;;;;3.13;1.65;;;23.50;62.60;;;;;;5003889;28;20081;-78
2022/07/16 11:53:37;;;;;;;2.22;1.40;;;23.40;62.90;;;;;;4995084;28;20090;-78
2022/07/16 11:56:05;;;;;;;3.70;1.38;;;23.40;60.90;;;;;;5001802;28;20325;-78
2022/07/16 11:58:50;;;;;;;3.00;1.40;;;23.40;61.50;;;;;;5002022;28;20038;-78
2022/07/16 12:01:21;;;;;;;3.25;1.40;;;23.50;62.40;;;;;;5002681;28;20014;-80
2022/07/16 12:03:54;;;;;;;6.22;1.83;;;23.50;63.60;;;;;;4985667;28;20021;-77
2022/07/16 12:06:36;;;;;;;4.45;1.55;;;23.50;61.70;;;;;;5002315;28;20097;-78
2022/07/16 12:09:02;;;;;;;4.03;1.10;;;23.50;60.00;;;;;;5002651;28;20313;-78
2022/07/16 12:11:34;;;;;;;2.50;1.75;;;23.50;62.50;;;;;;5003413;28;20034;-78
2022/07/16 12:14:02;;;;;;;4.25;1.40;;;23.40;59.80;;;;;;4970352;28;20053;-78
2022/07/16 12:16:28;;;;;;;1.00;0.90;;;23.40;60.80;;;;;;5002016;28;20026;-78
2022/07/16 12:19:02;;;;;;;4.82;2.40;;;23.40;63.10;;;;;;5001575;28;20026;-78
2022/07/16 12:21:38;;;;;;;3.05;1.65;;;23.30;61.50;;;;;;5002732;28;20026;-78
2022/07/16 12:24:04;;;;;;;3.15;1.65;;;23.30;64.40;;;;;;4999820;28;20026;-78
2022/07/16 12:26:37;;;;;;;1.55;1.15;;;23.40;60.80;;;;;;4968989;28;20037;-74
2022/07/16 12:29:05;;;;;;;2.17;1.40;;;23.60;61.60;;;;;;5000317;28;20026;-74
2022/07/16 12:31:31;;;;;;;1.90;1.50;;;23.90;60.60;;;;;;5000235;28;20072;-73
2022/07/16 12:33:59;;;;;;;1.25;1.15;;;24.20;59.90;;;;;;5000217;28;20022;-74
2022/07/16 12:36:35;;;;;;;1.70;1.17;;;24.20;59.50;;;;;;4982515;28;20034;-74
2022/07/16 12:39:06;;;;;;;1.67;1.35;;;24.20;59.00;;;;;;4977172;28;20120;-73
2022/07/16 12:41:40;;;;;;;1.52;1.13;;;24.30;59.30;;;;;;4997085;28;20041;-73
2022/07/16 12:44:17;;;;;;;1.85;1.13;;;24.20;60.70;;;;;;4977358;28;20033;-73
2022/07/16 12:46:48;;;;;;;2.33;1.33;;;24.10;61.20;;;;;;4968213;28;20186;-73
2022/07/16 12:49:20;;;;;;;2.90;1.42;;;24.00;58.00;;;;;;4966117;28;20352;-73
2022/07/16 12:51:48;;;;;;;3.33;1.70;;;24.10;57.60;;;;;;4990995;28;20320;-74
2022/07/16 12:54:15;;;;;;;3.65;1.48;;;24.20;58.60;;;;;;4994748;28;20022;-73
2022/07/16 12:59:26;;;;;;;2.70;1.42;;;24.30;59.70;;;;;;5000140;28;20042;-73